Dandenong South, Victoria

8:39 PM AEST on May 06, 2015 (GMT +1000)
Narre Station | | Change Station
CLOSE
Current Station
Personal Weather Station
Location: Narre Warren, VICTORIA
Elevation: 92 ft
Nearby Weather Stations

Elev 92 ft 38.02 °S, 145.30 °E | Updated 3 minutes ago

Light Rain Showers
Light Showers Rain
54.3 °F
Feels Like 54.3 °F
N
6.9
Wind Variable Wind from West
Gusts 13.6 mph

Today
High -- | Low -- °F
--% Chance of Precip.
Yesterday
High -- | Low -- °F
Precip. -- in
7:04 AM 5:26 PM
Waning Gibbous, 94% visible
Pressure 30.01 in
Visibility 6.2 miles
Clouds Scattered Clouds 3900 ft
Mostly Cloudy 4800 ft
Mostly Cloudy 5400 ft
Dew Point 51 °F
Humidity 88%
Rainfall 0.05 in
Snow Depth Not available.
UV 0 out of 12
Pollen Not available.
Air Quality Not available.
Flu Activity Not available.
METAR YMEN 061000Z AUTO 27010KT 9999 -SHRA SCT039 BKN048 BKN054 11/09 Q1016

More Conditions Fewer Conditions

Pressure 30.01 in
Visibility 6.2 miles
Clouds Scattered Clouds 3900 ft
Mostly Cloudy 4800 ft
Mostly Cloudy 5400 ft
Dew Point 51 °F
Humidity 88%
Rainfall 0.05 in
Snow Depth Not available.
UV 0 out of 12
Pollen Not available.
Air Quality Not available.
Flu Activity Not available.
METAR YMEN 061000Z AUTO 27010KT 9999 -SHRA SCT039 BKN048 BKN054 11/09 Q1016

More Conditions Fewer Conditions

10-Day Weather Forecast

Almanac

Astronomy

May. 06, 2015 Rise Set
Actual Time
Civil Twilight
Nautical Twilight
Astronomical Twilight
Moon
Length of Visible Light
Length of Day
Tomorrow will be .
, % of the Moon is Illuminated

Today's Extremes

Country Highs Country Lows

Community

WunderPhotos

Upload Photos

1,818,859 photos uploaded!

WunderBlogs® & News

Nearby

Air Quality

  Air Quality AQ Index Pollutant
Not available.

Snow Depth

Station Depth Elevation

Earthquake Activity

City Distance Mag. Time & Date
Minimum magnitude displayed is 2.5.

Coastal Water Temperatures

Place Temperature

Stations

Nearby Weather Stations

Station Location Temp. Windchill Dew Point Humidity Wind Precip. Elev Updated Type